createdAt,value
2022-12-08T00:00:43.371Z,75.98
2022-12-08T00:02:45.426Z,76.53
2022-12-08T00:05:06.340Z,76.92
2022-12-08T00:07:27.639Z,78.83
2022-12-08T00:09:38.700Z,78.80
2022-12-08T00:11:44.447Z,78.97
2022-12-08T00:13:46.521Z,77.65
2022-12-08T00:15:48.177Z,77.25
2022-12-08T00:17:49.751Z,76.78
2022-12-08T00:19:51.364Z,77.05
2022-12-08T00:21:53.649Z,76.50
2022-12-08T00:23:56.300Z,76.83
2022-12-08T00:26:02.341Z,77.17
2022-12-08T00:28:04.186Z,76.79
2022-12-08T00:30:07.082Z,77.22
2022-12-08T00:32:08.787Z,76.54
2022-12-08T00:34:12.572Z,76.32
2022-12-08T00:36:14.774Z,76.16
2022-12-08T00:38:16.705Z,76.08
2022-12-08T00:40:18.527Z,75.92
2022-12-08T00:42:20.164Z,75.66
2022-12-08T00:44:21.890Z,76.02
2022-12-08T00:46:23.551Z,75.23
2022-12-08T00:48:25.337Z,75.53
2022-12-08T00:50:26.996Z,75.25
2022-12-08T00:52:28.638Z,75.18
2022-12-08T00:54:30.316Z,75.88
2022-12-08T00:56:32.488Z,75.81
2022-12-08T00:58:34.092Z,75.81
2022-12-08T01:00:35.904Z,75.45
2022-12-08T01:02:37.747Z,75.50
2022-12-08T01:04:39.369Z,75.88
2022-12-08T01:06:41.905Z,75.61
2022-12-08T01:08:43.664Z,75.09
2022-12-08T01:10:45.371Z,74.34
2022-12-08T01:12:47.036Z,74.71
2022-12-08T01:14:48.688Z,74.92
2022-12-08T01:16:50.463Z,74.72
2022-12-08T01:18:52.395Z,74.49
2022-12-08T01:20:53.995Z,74.17
2022-12-08T01:22:55.688Z,74.52
2022-12-08T01:24:57.409Z,74.75
2022-12-08T01:26:59.012Z,74.53
2022-12-08T01:29:00.686Z,74.44
2022-12-08T01:31:02.783Z,74.27
2022-12-08T01:33:04.533Z,74.20
2022-12-08T01:35:06.408Z,74.28
2022-12-08T01:37:08.115Z,74.20
2022-12-08T01:39:17.590Z,74.63
2022-12-08T01:41:24.049Z,74.58
2022-12-08T01:43:25.884Z,74.19
2022-12-08T01:45:31.847Z,74.84
2022-12-08T01:47:42.465Z,74.61
2022-12-08T01:49:44.142Z,73.99
2022-12-08T01:51:57.668Z,74.30
2022-12-08T01:53:59.371Z,74.48
2022-12-08T01:56:08.629Z,75.11
2022-12-08T01:58:31.479Z,74.97
2022-12-08T02:00:33.035Z,74.56
2022-12-08T02:02:59.412Z,74.63
2022-12-08T02:05:02.142Z,74.51
2022-12-08T02:07:07.957Z,75.30
2022-12-08T02:09:10.207Z,75.09
2022-12-08T02:11:12.565Z,74.92
2022-12-08T02:13:16.473Z,74.82
2022-12-08T02:15:18.082Z,74.28
2022-12-08T02:17:35.609Z,74.94
2022-12-08T02:19:58.103Z,74.62
2022-12-08T02:22:24.190Z,75.91
2022-12-08T02:24:28.692Z,75.52
2022-12-08T02:26:53.285Z,74.96
2022-12-08T02:28:55.061Z,75.39
2022-12-08T02:31:46.816Z,74.46
2022-12-08T02:34:03.748Z,74.93
2022-12-08T02:36:08.391Z,74.72
2022-12-08T02:38:26.222Z,74.65
2022-12-08T02:40:33.809Z,73.94
2022-12-08T02:43:01.106Z,75.36
2022-12-08T02:45:19.375Z,76.00
2022-12-08T02:47:22.641Z,75.97
2022-12-08T02:49:33.863Z,76.78
2022-12-08T02:51:35.671Z,76.45
2022-12-08T02:53:37.378Z,76.12
2022-12-08T02:56:00.790Z,76.15
2022-12-08T02:58:28.732Z,75.45
2022-12-08T03:00:38.540Z,74.99
2022-12-08T03:02:49.258Z,76.22
2022-12-08T03:04:58.714Z,76.30
2022-12-08T03:07:09.144Z,75.73
2022-12-08T03:09:17.866Z,75.38
2022-12-08T03:12:06.858Z,75.29
2022-12-08T03:14:10.906Z,75.21
2022-12-08T03:16:16.996Z,74.83
2022-12-08T03:18:21.176Z,75.17
2022-12-08T03:20:25.479Z,75.32
2022-12-08T03:22:28.050Z,75.03
2022-12-08T03:24:33.115Z,75.01
2022-12-08T03:26:41.702Z,74.95
2022-12-08T03:28:43.374Z,74.69
2022-12-08T03:30:46.341Z,74.71
2022-12-08T03:32:53.039Z,74.72
2022-12-08T03:34:57.070Z,74.25
2022-12-08T03:37:00.783Z,74.39
2022-12-08T03:39:02.458Z,74.95
2022-12-08T03:41:19.460Z,75.63
2022-12-08T03:43:21.090Z,76.27
2022-12-08T03:45:22.750Z,76.61
2022-12-08T03:47:24.417Z,76.41
2022-12-08T03:49:26.016Z,75.81
2022-12-08T03:51:27.631Z,75.24
2022-12-08T03:53:29.297Z,75.32
2022-12-08T03:55:30.970Z,75.74
2022-12-08T03:57:32.583Z,75.94
2022-12-08T03:59:34.453Z,75.76
2022-12-08T04:01:36.145Z,76.07
2022-12-08T04:03:37.829Z,75.28
2022-12-08T04:05:39.628Z,75.44
2022-12-08T04:07:41.316Z,75.35
2022-12-08T04:09:43.113Z,74.60
2022-12-08T04:11:44.791Z,74.37
2022-12-08T04:13:46.482Z,74.90
2022-12-08T04:15:48.437Z,74.44
2022-12-08T04:17:50.230Z,75.09
2022-12-08T04:19:51.920Z,75.15
2022-12-08T04:21:53.568Z,74.98
2022-12-08T04:24:00.873Z,74.79
2022-12-08T04:26:03.362Z,75.03
2022-12-08T04:28:05.790Z,74.75
2022-12-08T04:30:09.984Z,74.99
2022-12-08T04:32:11.575Z,74.15
2022-12-08T04:34:13.310Z,74.32
2022-12-08T04:36:15.175Z,74.56
2022-12-08T04:38:17.418Z,74.91
2022-12-08T04:40:19.080Z,74.03
2022-12-08T04:42:20.943Z,74.66
2022-12-08T04:44:22.611Z,74.10
2022-12-08T04:46:24.339Z,75.48
2022-12-08T04:48:26.025Z,75.56
2022-12-08T04:50:28.197Z,75.77
2022-12-08T04:52:29.915Z,75.97
2022-12-08T04:54:31.727Z,76.80
2022-12-08T04:56:33.391Z,78.05
2022-12-08T04:58:35.127Z,77.30
2022-12-08T05:00:36.855Z,76.92
2022-12-08T05:02:38.690Z,76.68
2022-12-08T05:04:40.482Z,77.17
2022-12-08T05:06:42.131Z,77.30
2022-12-08T05:08:44.032Z,77.15
2022-12-08T05:10:45.758Z,76.27
2022-12-08T05:12:47.426Z,75.41
2022-12-08T05:14:49.026Z,75.63
2022-12-08T05:16:50.842Z,76.80
2022-12-08T05:18:52.503Z,77.07
2022-12-08T05:20:54.155Z,77.23
2022-12-08T05:22:55.860Z,77.14
2022-12-08T05:24:57.505Z,76.07
2022-12-08T05:26:59.214Z,76.20
2022-12-08T05:29:01.273Z,75.46
2022-12-08T05:31:03.002Z,75.41
2022-12-08T05:33:04.613Z,76.72
2022-12-08T05:35:06.800Z,77.23
2022-12-08T05:37:08.454Z,77.32
2022-12-08T05:39:13.961Z,77.60
2022-12-08T05:41:18.052Z,76.82
2022-12-08T05:43:19.928Z,77.11
2022-12-08T05:45:21.588Z,77.62
2022-12-08T05:47:23.189Z,77.11
2022-12-08T05:49:24.861Z,77.06
2022-12-08T05:51:26.961Z,76.28
2022-12-08T05:53:28.604Z,75.52
2022-12-08T05:55:30.451Z,75.08
2022-12-08T05:57:32.172Z,75.01
2022-12-08T05:59:33.881Z,75.58
2022-12-08T06:01:35.671Z,74.80
2022-12-08T06:03:37.457Z,75.12
2022-12-08T06:05:41.051Z,74.20
2022-12-08T06:07:42.777Z,74.53
2022-12-08T06:09:44.548Z,75.03
2022-12-08T06:11:47.303Z,77.50
2022-12-08T06:13:49.789Z,78.05
2022-12-08T06:15:51.397Z,79.27
2022-12-08T06:17:53.090Z,78.26
2022-12-08T06:19:54.722Z,77.70
2022-12-08T06:21:56.327Z,76.93
2022-12-08T06:23:58.029Z,76.64
2022-12-08T06:26:07.639Z,76.61
2022-12-08T06:28:09.269Z,75.84
2022-12-08T06:30:11.156Z,75.94
2022-12-08T06:32:13.081Z,75.87
2022-12-08T06:34:14.740Z,76.10
2022-12-08T06:36:18.584Z,75.62
2022-12-08T06:38:20.179Z,75.31
2022-12-08T06:40:21.860Z,75.76
2022-12-08T06:42:41.941Z,75.24
2022-12-08T06:44:43.824Z,75.19
2022-12-08T06:46:45.427Z,75.02
2022-12-08T06:48:47.534Z,74.35
2022-12-08T06:50:49.162Z,74.42
2022-12-08T06:53:02.772Z,73.90
2022-12-08T06:55:07.129Z,73.43
2022-12-08T06:57:08.756Z,73.61
2022-12-08T06:59:10.621Z,73.55
2022-12-08T07:01:13.827Z,72.95
2022-12-08T07:03:15.583Z,72.96
2022-12-08T07:05:17.272Z,73.59
2022-12-08T07:07:18.852Z,74.42
2022-12-08T07:09:20.728Z,74.13
2022-12-08T07:11:22.871Z,74.58
2022-12-08T07:13:24.829Z,75.15
2022-12-08T07:15:26.462Z,75.60
2022-12-08T07:17:28.071Z,77.75
2022-12-08T07:19:29.837Z,79.65
2022-12-08T07:21:32.688Z,79.94
2022-12-08T07:23:34.541Z,79.69
2022-12-08T07:25:36.267Z,80.13
2022-12-08T07:27:37.848Z,79.08
2022-12-08T07:29:39.467Z,78.32
2022-12-08T07:31:41.101Z,76.80
2022-12-08T07:33:43.235Z,76.44
2022-12-08T07:35:49.110Z,76.48
2022-12-08T07:37:51.197Z,76.95
2022-12-08T07:39:52.809Z,76.04
2022-12-08T07:41:54.390Z,74.28
2022-12-08T07:43:56.567Z,73.42
2022-12-08T07:45:58.223Z,73.32
2022-12-08T07:47:59.987Z,72.65
2022-12-08T07:50:01.851Z,71.55
2022-12-08T07:52:03.751Z,71.20
2022-12-08T07:54:05.365Z,70.56
2022-12-08T07:56:08.163Z,70.44
2022-12-08T07:58:10.820Z,69.61
2022-12-08T08:00:13.176Z,69.81
2022-12-08T08:02:24.951Z,69.27
2022-12-08T08:04:27.596Z,69.84
2022-12-08T08:06:29.274Z,69.82
2022-12-08T08:08:31.030Z,70.10
2022-12-08T08:10:32.711Z,70.25
2022-12-08T08:12:34.326Z,69.96
2022-12-08T08:14:36.027Z,70.50
2022-12-08T08:16:38.789Z,70.54
2022-12-08T08:18:40.580Z,70.70
2022-12-08T08:20:42.432Z,70.87
2022-12-08T08:22:45.771Z,70.84
2022-12-08T08:24:47.369Z,70.41
2022-12-08T08:26:49.040Z,70.68
2022-12-08T08:28:50.634Z,70.52
2022-12-08T08:30:52.439Z,70.35
2022-12-08T08:32:54.127Z,69.65
2022-12-08T08:34:55.743Z,69.73
2022-12-08T08:36:57.407Z,69.90
2022-12-08T08:38:59.187Z,69.33
2022-12-08T08:41:02.976Z,69.58
2022-12-08T08:43:06.255Z,69.91
2022-12-08T08:45:08.305Z,70.03
2022-12-08T08:47:09.928Z,69.84
2022-12-08T08:49:11.565Z,69.82
2022-12-08T08:51:14.484Z,70.17
2022-12-08T08:53:16.158Z,69.89
2022-12-08T08:55:18.166Z,70.38
2022-12-08T08:57:25.320Z,69.75
2022-12-08T08:59:27.986Z,69.84
2022-12-08T09:01:30.193Z,69.37
2022-12-08T09:03:32.096Z,70.87
2022-12-08T09:05:33.692Z,71.09
2022-12-08T09:07:35.376Z,71.13
2022-12-08T09:09:37.516Z,71.03
2022-12-08T09:11:39.115Z,70.64
2022-12-08T09:13:40.799Z,69.66
2022-12-08T09:15:42.643Z,69.53
2022-12-08T09:17:44.596Z,69.97
2022-12-08T09:19:46.234Z,70.19
2022-12-08T09:21:47.999Z,69.24
2022-12-08T09:23:59.233Z,69.68
2022-12-08T09:26:01.095Z,69.17
2022-12-08T09:28:02.950Z,69.85
2022-12-08T09:30:05.306Z,68.99
2022-12-08T09:32:07.174Z,69.09
2022-12-08T09:34:09.357Z,68.64
2022-12-08T09:36:11.219Z,68.73
2022-12-08T09:38:13.812Z,68.25
2022-12-08T09:40:18.003Z,68.32
2022-12-08T09:42:42.548Z,67.20
2022-12-08T09:45:04.250Z,67.18
2022-12-08T09:47:14.095Z,66.87
2022-12-08T09:49:19.104Z,66.71
2022-12-08T09:51:20.734Z,66.49
2022-12-08T09:53:43.903Z,66.52
2022-12-08T09:56:21.120Z,65.28
2022-12-08T09:58:47.596Z,65.92
2022-12-08T10:00:49.259Z,65.69
2022-12-08T10:02:50.981Z,66.14
2022-12-08T10:04:55.395Z,65.34
2022-12-08T10:07:04.969Z,65.27
2022-12-08T10:09:37.162Z,64.66
2022-12-08T10:11:58.975Z,64.61
2022-12-08T10:14:25.965Z,64.53
2022-12-08T10:16:40.958Z,63.36
2022-12-08T10:18:42.866Z,62.56
2022-12-08T10:20:47.670Z,61.55
2022-12-08T10:22:57.205Z,63.46
2022-12-08T10:25:09.648Z,63.51
2022-12-08T10:27:12.886Z,62.55
2022-12-08T10:29:15.212Z,62.00
2022-12-08T10:31:19.491Z,62.29
2022-12-08T10:33:22.488Z,61.83
2022-12-08T10:35:25.366Z,61.84
2022-12-08T10:37:27.027Z,63.08
2022-12-08T10:39:31.726Z,63.05
2022-12-08T10:41:33.337Z,63.13
2022-12-08T10:43:37.153Z,62.06
2022-12-08T10:45:41.636Z,61.68
2022-12-08T10:47:45.518Z,60.17
2022-12-08T10:49:48.130Z,60.65
2022-12-08T10:51:49.766Z,59.91
2022-12-08T10:53:51.457Z,60.28
2022-12-08T10:56:06.854Z,60.99
2022-12-08T10:58:36.155Z,60.49
2022-12-08T11:00:39.225Z,60.21
2022-12-08T11:02:54.445Z,60.57
2022-12-08T11:05:00.238Z,61.39
2022-12-08T11:07:03.574Z,61.73
2022-12-08T11:09:27.787Z,62.02
2022-12-08T11:11:56.878Z,62.20
2022-12-08T11:13:58.672Z,62.05
2022-12-08T11:16:00.431Z,62.74
2022-12-08T11:18:09.871Z,62.31
2022-12-08T11:20:11.713Z,61.72
2022-12-08T11:22:32.509Z,61.92
2022-12-08T11:24:37.645Z,61.55
2022-12-08T11:26:39.839Z,61.63
2022-12-08T11:28:41.477Z,62.29
2022-12-08T11:30:47.017Z,62.13
2022-12-08T11:32:57.378Z,62.48
2022-12-08T11:35:02.665Z,62.32
2022-12-08T11:37:05.801Z,62.62
2022-12-08T11:39:10.806Z,63.23
2022-12-08T11:41:16.985Z,62.72
2022-12-08T11:43:21.653Z,62.69
2022-12-08T11:45:29.384Z,62.17
2022-12-08T11:47:44.008Z,62.07
2022-12-08T11:52:00.271Z,60.68
2022-12-08T11:54:27.854Z,60.42
2022-12-08T11:56:34.126Z,60.30
2022-12-08T11:58:42.394Z,60.19
2022-12-08T12:00:44.259Z,60.01
2022-12-08T12:02:50.320Z,59.51
2022-12-08T12:05:46.758Z,59.06
2022-12-08T12:08:15.766Z,59.26
2022-12-08T12:10:20.283Z,59.69
2022-12-08T12:12:39.266Z,59.75
2022-12-08T12:15:18.954Z,60.36
2022-12-08T12:17:35.528Z,60.23
2022-12-08T12:19:39.423Z,60.40
2022-12-08T12:21:42.635Z,60.54
2022-12-08T12:23:54.249Z,60.23
2022-12-08T12:25:59.134Z,60.02
2022-12-08T12:28:03.812Z,59.37
2022-12-08T12:30:18.303Z,60.14
2022-12-08T12:32:20.239Z,60.25
2022-12-08T12:34:52.336Z,60.07
2022-12-08T12:36:58.490Z,60.12
2022-12-08T12:39:01.190Z,59.85
2022-12-08T12:41:04.431Z,59.75
2022-12-08T12:43:14.141Z,60.07
2022-12-08T12:45:21.734Z,60.32
2022-12-08T12:47:56.619Z,59.77
2022-12-08T12:50:06.833Z,60.63
2022-12-08T12:52:21.077Z,60.96
2022-12-08T12:54:26.972Z,61.25
2022-12-08T12:56:50.158Z,61.45
2022-12-08T12:58:53.983Z,61.91
2022-12-08T13:01:10.547Z,62.03
2022-12-08T13:03:15.448Z,61.58
2022-12-08T13:05:24.033Z,61.60
2022-12-08T13:07:29.055Z,61.46
2022-12-08T13:09:34.402Z,61.23
2022-12-08T13:11:48.643Z,61.30
2022-12-08T13:14:00.278Z,61.50
2022-12-08T13:16:18.930Z,61.35
2022-12-08T13:18:25.305Z,61.42
2022-12-08T13:20:27.077Z,61.16
2022-12-08T13:22:58.536Z,61.12
2022-12-08T13:25:38.608Z,61.43
2022-12-08T13:27:53.071Z,61.29
2022-12-08T13:30:52.308Z,61.17
2022-12-08T13:35:21.329Z,61.19
2022-12-08T13:37:29.536Z,61.29
2022-12-08T13:39:36.907Z,61.26
2022-12-08T13:41:41.742Z,61.08
2022-12-08T13:44:31.116Z,61.21
2022-12-08T13:47:02.729Z,61.49
2022-12-08T13:50:36.636Z,61.81
2022-12-08T13:57:02.571Z,61.82
2022-12-08T13:59:09.250Z,62.06
2022-12-08T14:01:19.953Z,62.23
2022-12-08T14:03:21.793Z,62.37
2022-12-08T14:05:47.669Z,62.30
2022-12-08T14:07:48.811Z,63.37
2022-12-08T14:09:51.330Z,64.07
2022-12-08T14:12:06.021Z,64.14
2022-12-08T14:14:09.391Z,64.00
2022-12-08T14:16:28.473Z,64.00
2022-12-08T14:18:31.590Z,63.54
2022-12-08T14:20:51.915Z,63.65
2022-12-08T14:22:57.393Z,63.98
2022-12-08T14:24:59.615Z,63.81
2022-12-08T14:27:04.063Z,64.21
2022-12-08T14:29:08.867Z,64.28
2022-12-08T14:31:14.114Z,64.10
2022-12-08T14:33:17.461Z,64.13
2022-12-08T14:35:26.471Z,64.23
2022-12-08T14:37:31.791Z,64.95
2022-12-08T14:39:33.391Z,65.92
2022-12-08T14:41:34.993Z,65.80
2022-12-08T14:43:36.611Z,66.14
2022-12-08T14:45:41.396Z,66.00
2022-12-08T14:47:43.314Z,66.05
2022-12-08T14:49:44.922Z,66.27
2022-12-08T14:51:46.546Z,65.92
2022-12-08T14:54:01.027Z,65.94
2022-12-08T14:56:07.808Z,65.91
2022-12-08T14:58:17.911Z,66.53
2022-12-08T15:00:20.766Z,66.83
2022-12-08T15:02:29.483Z,67.22
2022-12-08T15:04:31.152Z,67.38
2022-12-08T15:06:32.804Z,67.28
2022-12-08T15:08:35.128Z,67.29
2022-12-08T15:10:39.924Z,67.11
2022-12-08T15:13:00.250Z,66.94
2022-12-08T15:15:15.696Z,66.86
2022-12-08T15:17:33.561Z,66.80
2022-12-08T15:19:35.264Z,66.85
2022-12-08T15:21:38.903Z,67.23
2022-12-08T15:23:45.785Z,67.94
2022-12-08T15:25:47.646Z,67.81
2022-12-08T15:27:50.828Z,67.93
2022-12-08T15:29:53.174Z,67.85
2022-12-08T15:31:57.402Z,68.38
2022-12-08T15:33:59.070Z,68.68
2022-12-08T15:36:00.683Z,68.39
2022-12-08T15:38:02.386Z,69.01
2022-12-08T15:40:05.103Z,68.11
2022-12-08T15:42:12.688Z,69.10
2022-12-08T15:44:14.269Z,69.47
2022-12-08T15:46:15.919Z,69.35
2022-12-08T15:48:23.117Z,69.17
2022-12-08T15:50:24.704Z,69.08
2022-12-08T15:52:26.536Z,69.50
2022-12-08T15:54:28.146Z,69.73
2022-12-08T15:56:29.843Z,70.49
2022-12-08T15:58:53.101Z,69.80
2022-12-08T16:00:55.694Z,69.20
2022-12-08T16:03:34.104Z,69.86
2022-12-08T16:05:42.222Z,69.53
2022-12-08T16:07:42.059Z,69.37
2022-12-08T16:09:44.003Z,68.89
2022-12-08T16:12:07.196Z,69.33
2022-12-08T16:14:54.781Z,69.31
2022-12-08T16:16:31.303Z,70.13
2022-12-08T16:18:35.386Z,69.75
2022-12-08T16:21:06.031Z,69.66
2022-12-08T16:23:19.421Z,69.13
2022-12-08T16:25:22.363Z,69.26
2022-12-08T16:29:50.114Z,68.96
2022-12-08T16:31:52.218Z,69.94
2022-12-08T16:33:53.883Z,69.46
2022-12-08T16:35:55.643Z,69.58
2022-12-08T16:37:57.596Z,70.78
2022-12-08T16:39:59.379Z,70.38
2022-12-08T16:42:19.376Z,70.77
2022-12-08T16:44:21.283Z,70.18
2022-12-08T16:46:26.952Z,71.36
2022-12-08T16:48:28.718Z,71.75
2022-12-08T16:50:34.902Z,72.27
2022-12-08T16:52:36.555Z,71.52
2022-12-08T16:54:38.211Z,72.04
2022-12-08T16:56:40.000Z,71.24
2022-12-08T16:58:41.615Z,70.99
2022-12-08T17:00:43.223Z,71.41
2022-12-08T17:02:45.380Z,71.52
2022-12-08T17:04:47.068Z,70.94
2022-12-08T17:06:50.967Z,70.09
2022-12-08T17:08:52.635Z,70.26
2022-12-08T17:11:07.267Z,70.17
2022-12-08T17:13:09.966Z,70.56
2022-12-08T17:15:15.796Z,70.05
2022-12-08T17:17:17.384Z,70.09
2022-12-08T17:19:19.002Z,70.69
2022-12-08T17:21:20.805Z,70.85
2022-12-08T17:23:22.641Z,70.25
2022-12-08T17:25:27.531Z,70.75
2022-12-08T17:27:29.274Z,70.88
2022-12-08T17:29:31.855Z,70.68
2022-12-08T17:31:33.641Z,71.17
2022-12-08T17:33:35.526Z,71.09
2022-12-08T17:35:37.104Z,71.31
2022-12-08T17:37:38.802Z,71.19
2022-12-08T17:39:40.574Z,71.99
2022-12-08T17:41:42.202Z,72.39
2022-12-08T17:43:43.883Z,71.75
2022-12-08T17:45:47.465Z,70.96
2022-12-08T17:47:49.143Z,71.01
2022-12-08T17:49:50.880Z,71.42
2022-12-08T17:51:55.162Z,71.14
2022-12-08T17:53:56.784Z,70.89
2022-12-08T17:55:58.405Z,70.50
2022-12-08T17:58:00.682Z,70.66
2022-12-08T18:00:03.172Z,71.06
2022-12-08T18:02:05.102Z,71.42
2022-12-08T18:04:08.232Z,70.98
2022-12-08T18:06:11.525Z,71.52
2022-12-08T18:08:13.734Z,72.24
2022-12-08T18:10:16.007Z,71.94
2022-12-08T18:12:23.244Z,72.05
2022-12-08T18:14:25.519Z,72.00
2022-12-08T18:16:28.013Z,72.23
2022-12-08T18:18:29.697Z,72.04
2022-12-08T18:20:31.477Z,71.54
2022-12-08T18:22:33.115Z,71.61
2022-12-08T18:24:34.800Z,71.43
2022-12-08T18:26:36.538Z,70.54
2022-12-08T18:28:38.801Z,70.92
2022-12-08T18:30:40.519Z,71.13
2022-12-08T18:32:42.236Z,71.07
2022-12-08T18:34:44.455Z,70.83
2022-12-08T18:36:46.047Z,71.10
2022-12-08T18:38:47.871Z,70.40
2022-12-08T18:40:49.559Z,70.87
2022-12-08T18:42:51.256Z,71.19
2022-12-08T18:45:13.487Z,71.26
2022-12-08T18:47:17.969Z,69.95
2022-12-08T18:49:19.879Z,70.89
2022-12-08T18:51:24.442Z,71.24
2022-12-08T18:53:26.078Z,71.20
2022-12-08T18:55:27.650Z,70.94
2022-12-08T18:57:29.367Z,71.27
2022-12-08T18:59:31.026Z,70.79
2022-12-08T19:01:33.965Z,69.96
2022-12-08T19:03:35.762Z,71.13
2022-12-08T19:05:37.533Z,71.14
2022-12-08T19:07:39.247Z,70.38
2022-12-08T19:09:42.141Z,70.71
2022-12-08T19:11:44.180Z,71.32
2022-12-08T19:13:46.611Z,71.48
2022-12-08T19:15:48.465Z,71.80
2022-12-08T19:17:50.143Z,72.13
2022-12-08T19:19:52.073Z,72.31
2022-12-08T19:21:53.789Z,72.79
2022-12-08T19:23:58.350Z,73.59
2022-12-08T19:26:00.921Z,73.19
2022-12-08T19:28:02.719Z,72.51
2022-12-08T19:30:05.286Z,72.94
2022-12-08T19:32:07.414Z,71.82
2022-12-08T19:34:10.508Z,72.72
2022-12-08T19:36:16.021Z,73.40
2022-12-08T19:38:17.681Z,73.34
2022-12-08T19:40:37.847Z,74.57
2022-12-08T19:42:58.332Z,75.00
2022-12-08T19:45:07.557Z,75.65
2022-12-08T19:47:09.567Z,76.05
2022-12-08T19:49:11.274Z,75.53
2022-12-08T19:51:12.951Z,75.66
2022-12-08T19:53:15.582Z,75.69
2022-12-08T19:55:17.244Z,76.03
2022-12-08T19:57:20.623Z,75.79
2022-12-08T19:59:25.284Z,74.98
2022-12-08T20:01:27.049Z,74.98
2022-12-08T20:03:28.937Z,74.02
2022-12-08T20:05:31.922Z,74.60
2022-12-08T20:07:33.929Z,74.90
2022-12-08T20:09:35.798Z,75.70
2022-12-08T20:11:38.256Z,75.45
2022-12-08T20:13:44.699Z,74.84
2022-12-08T20:15:46.639Z,74.58
2022-12-08T20:17:48.384Z,75.08
2022-12-08T20:19:50.212Z,76.59
2022-12-08T20:21:51.963Z,76.70
2022-12-08T20:23:53.991Z,76.43
2022-12-08T20:25:55.685Z,76.27
2022-12-08T20:27:57.446Z,75.73
2022-12-08T20:29:59.064Z,76.33
2022-12-08T20:32:00.803Z,77.12
2022-12-08T20:34:02.653Z,76.84
2022-12-08T20:36:05.683Z,76.04
2022-12-08T20:38:07.312Z,76.61
2022-12-08T20:40:09.394Z,76.42
2022-12-08T20:42:14.149Z,75.60
2022-12-08T20:44:15.855Z,76.28
2022-12-08T20:46:18.268Z,75.95
2022-12-08T20:48:19.900Z,75.65
2022-12-08T20:50:21.651Z,78.11
2022-12-08T20:52:23.332Z,79.51
2022-12-08T20:54:25.172Z,79.54
2022-12-08T20:56:27.405Z,79.51
2022-12-08T20:58:29.253Z,78.52
2022-12-08T21:00:31.029Z,78.66
2022-12-08T21:02:32.954Z,78.92
2022-12-08T21:04:35.198Z,78.99
2022-12-08T21:06:36.941Z,78.83
2022-12-08T21:08:39.795Z,78.73
2022-12-08T21:10:43.930Z,77.58
2022-12-08T21:12:46.132Z,77.98
2022-12-08T21:14:48.026Z,77.34
2022-12-08T21:16:50.972Z,77.28
2022-12-08T21:18:52.990Z,77.37
2022-12-08T21:21:06.480Z,76.92
2022-12-08T21:23:08.631Z,76.88
2022-12-08T21:25:10.484Z,75.72
2022-12-08T21:27:12.276Z,76.21
2022-12-08T21:29:14.060Z,77.01
2022-12-08T21:31:18.302Z,76.58
2022-12-08T21:33:20.283Z,77.05
2022-12-08T21:35:22.165Z,77.56
2022-12-08T21:37:24.568Z,77.69
2022-12-08T21:39:26.814Z,76.58
2022-12-08T21:41:47.389Z,76.55
2022-12-08T21:43:49.113Z,76.64
2022-12-08T21:45:50.908Z,76.19
2022-12-08T21:47:52.668Z,75.80
2022-12-08T21:49:54.485Z,76.21
2022-12-08T21:51:56.616Z,76.39
2022-12-08T21:53:58.349Z,76.06
2022-12-08T21:56:00.162Z,76.56
2022-12-08T21:58:02.333Z,77.28
2022-12-08T22:00:06.856Z,77.63
2022-12-08T22:02:14.699Z,77.23
2022-12-08T22:04:21.924Z,76.91
2022-12-08T22:06:23.711Z,76.61
2022-12-08T22:08:25.534Z,76.54
2022-12-08T22:10:27.722Z,77.03
2022-12-08T22:12:29.461Z,76.92
2022-12-08T22:14:31.353Z,76.88
2022-12-08T22:16:33.188Z,77.20
2022-12-08T22:18:35.728Z,76.59
2022-12-08T22:20:43.717Z,77.20
2022-12-08T22:22:46.913Z,76.89
2022-12-08T22:24:48.680Z,76.83
2022-12-08T22:26:50.369Z,76.54
2022-12-08T22:28:52.327Z,76.64
2022-12-08T22:30:53.967Z,76.35
2022-12-08T22:32:55.597Z,77.01
2022-12-08T22:34:57.416Z,76.11
2022-12-08T22:36:59.107Z,76.17
2022-12-08T22:39:02.023Z,76.28
2022-12-08T22:41:05.059Z,76.50
2022-12-08T22:43:06.726Z,76.33
2022-12-08T22:45:09.244Z,76.50
2022-12-08T22:47:11.427Z,76.38
2022-12-08T22:49:13.150Z,76.67
2022-12-08T22:51:15.177Z,76.58
2022-12-08T22:53:17.250Z,76.74
2022-12-08T22:55:18.878Z,76.93
2022-12-08T22:57:20.476Z,77.02
2022-12-08T22:59:22.461Z,77.48
2022-12-08T23:01:26.741Z,77.10
2022-12-08T23:03:28.778Z,77.27
2022-12-08T23:05:35.138Z,78.16
2022-12-08T23:07:37.062Z,78.35
2022-12-08T23:09:38.733Z,77.82
2022-12-08T23:11:40.681Z,77.83
2022-12-08T23:13:42.335Z,77.61
2022-12-08T23:15:44.022Z,77.19
2022-12-08T23:17:46.174Z,77.35
2022-12-08T23:19:47.901Z,76.48
2022-12-08T23:21:49.730Z,76.80
2022-12-08T23:23:51.478Z,76.52
2022-12-08T23:25:53.351Z,76.54
2022-12-08T23:27:55.214Z,76.65
2022-12-08T23:29:57.096Z,77.20
2022-12-08T23:31:59.061Z,77.11
2022-12-08T23:34:02.101Z,77.67
2022-12-08T23:36:04.103Z,77.37
2022-12-08T23:38:05.719Z,77.15
2022-12-08T23:40:08.286Z,78.21
2022-12-08T23:42:10.666Z,77.96
2022-12-08T23:44:12.428Z,77.95
2022-12-08T23:46:15.801Z,78.27
2022-12-08T23:48:17.656Z,79.24
2022-12-08T23:50:19.607Z,79.47
2022-12-08T23:52:21.242Z,79.15
2022-12-08T23:54:23.165Z,78.69
2022-12-08T23:56:30.057Z,78.61
2022-12-08T23:58:32.908Z,78.33
